Time;durP1;ratioP1;P1;durP2;ratioP2;P2;SDS_P1;SDS_P2;PMS_P1;PMS_P2;Temp;Humidity;BMP_temperature;BMP_pressure;BME280_temperature;BME280_humidity;BME280_pressure;Samples;Min_cycle;Max_cycle;Signal;HPM_P1;HPM_P2
2022/10/08 00:00:26;;;;;;;18.52;3.78;;;12.10;99.90;;;;;;5032913;28;20045;-77
2022/10/08 00:02:54;;;;;;;14.13;4.20;;;12.10;99.90;;;;;;5031541;28;20029;-78
2022/10/08 00:05:20;;;;;;;16.02;4.32;;;12.10;99.90;;;;;;5032755;28;20490;-76
2022/10/08 00:07:46;;;;;;;15.13;3.90;;;12.10;99.90;;;;;;5033299;28;20100;-77
2022/10/08 00:10:12;;;;;;;18.63;3.55;;;12.10;99.90;;;;;;5032494;28;20061;-79
2022/10/08 00:12:39;;;;;;;18.25;3.80;;;12.00;99.90;;;;;;5032638;28;20046;-78
2022/10/08 00:15:05;;;;;;;12.48;3.92;;;12.10;99.90;;;;;;5032419;28;20037;-75
2022/10/08 00:17:30;;;;;;;11.65;3.38;;;12.10;99.90;;;;;;5032547;28;20052;-78
2022/10/08 00:19:56;;;;;;;15.27;3.20;;;12.10;99.90;;;;;;5032566;28;20030;-76
2022/10/08 00:22:23;;;;;;;8.52;3.13;;;12.00;99.90;;;;;;5030945;28;20026;-77
2022/10/08 00:24:52;;;;;;;16.63;3.78;;;12.10;99.90;;;;;;5032466;28;20033;-75
2022/10/08 00:27:22;;;;;;;12.73;3.58;;;12.10;99.90;;;;;;5031744;28;20029;-76
2022/10/08 00:29:49;;;;;;;11.20;3.15;;;12.10;99.90;;;;;;5031408;28;20037;-77
2022/10/08 00:32:16;;;;;;;13.95;3.53;;;12.10;99.90;;;;;;5031561;28;20029;-77
2022/10/08 00:34:42;;;;;;;12.77;3.80;;;12.10;99.90;;;;;;5030982;28;20033;-76
2022/10/08 00:37:08;;;;;;;15.40;4.28;;;12.20;99.90;;;;;;5031576;28;20041;-77
2022/10/08 00:39:33;;;;;;;20.27;4.03;;;12.20;99.90;;;;;;5032071;28;20033;-77
2022/10/08 00:42:01;;;;;;;13.18;3.13;;;12.10;99.90;;;;;;5032380;28;20029;-77
2022/10/08 00:45:11;;;;;;;8.73;3.30;;;12.10;99.90;;;;;;5030984;28;20501;-75
2022/10/08 00:47:47;;;;;;;16.70;4.43;;;12.10;99.90;;;;;;5027377;28;20036;-75
2022/10/08 00:50:15;;;;;;;21.60;5.03;;;12.10;99.90;;;;;;5031697;28;20025;-77
2022/10/08 00:52:46;;;;;;;8.40;3.75;;;12.00;99.90;;;;;;5032156;28;20033;-78
2022/10/08 00:55:15;;;;;;;25.00;4.97;;;12.00;99.90;;;;;;5032224;28;20044;-76
2022/10/08 00:57:42;;;;;;;20.30;4.50;;;11.90;99.90;;;;;;5031968;28;20033;-77
2022/10/08 01:00:20;;;;;;;21.75;4.75;;;11.90;99.90;;;;;;5031754;28;20109;-76
2022/10/08 01:02:46;;;;;;;13.18;3.75;;;11.80;99.90;;;;;;5030289;28;20072;-79
2022/10/08 01:05:16;;;;;;;10.43;4.28;;;11.80;99.90;;;;;;5037910;28;20022;-77
2022/10/08 01:07:58;;;;;;;14.75;4.80;;;11.80;99.90;;;;;;5031197;28;20029;-77
2022/10/08 01:10:33;;;;;;;15.95;5.15;;;11.80;99.90;;;;;;5030455;28;20029;-77
2022/10/08 01:13:07;;;;;;;20.30;6.10;;;11.80;99.90;;;;;;5031250;28;20036;-76
2022/10/08 01:15:40;;;;;;;19.42;6.40;;;11.80;99.90;;;;;;5031347;28;21705;-77
2022/10/08 01:18:35;;;;;;;20.65;7.30;;;11.80;99.90;;;;;;5030746;28;20083;-76
2022/10/08 01:21:42;;;;;;;24.88;8.27;;;11.80;99.90;;;;;;5031344;28;20026;-76
2022/10/08 01:27:40;;;;;;;22.67;8.15;;;11.90;99.90;;;;;;5031178;28;20029;-76
2022/10/08 01:30:09;;;;;;;18.00;7.03;;;11.90;99.90;;;;;;5031503;28;20034;-77
2022/10/08 01:32:42;;;;;;;24.95;6.68;;;11.90;99.90;;;;;;5037967;28;20036;-72
2022/10/08 01:35:19;;;;;;;20.45;6.10;;;11.90;99.90;;;;;;5046796;28;20030;-77
2022/10/08 01:37:46;;;;;;;22.33;5.57;;;11.90;99.90;;;;;;5031837;28;20436;-77
2022/10/08 01:40:19;;;;;;;14.07;5.47;;;11.90;99.90;;;;;;5030041;28;20026;-74
2022/10/08 01:42:48;;;;;;;18.52;4.20;;;11.90;99.90;;;;;;5037639;28;20045;-77
2022/10/08 01:45:22;;;;;;;10.82;3.15;;;12.00;99.90;;;;;;5030896;28;20028;-76
2022/10/08 01:47:49;;;;;;;11.82;2.78;;;12.00;99.90;;;;;;5030640;28;20057;-75
2022/10/08 01:50:21;;;;;;;16.73;3.28;;;12.00;99.90;;;;;;5016707;28;20056;-77
2022/10/08 01:52:57;;;;;;;7.60;2.83;;;12.00;99.90;;;;;;5035149;28;20025;-74
2022/10/08 01:55:51;;;;;;;18.55;2.85;;;12.00;99.90;;;;;;5033139;28;20033;-76
2022/10/08 01:58:27;;;;;;;11.43;3.55;;;12.00;99.90;;;;;;5035520;28;20059;-77
2022/10/08 02:00:55;;;;;;;8.23;2.83;;;12.00;99.90;;;;;;5041418;28;20097;-82
2022/10/08 02:03:21;;;;;;;12.48;3.22;;;12.00;99.90;;;;;;5033570;28;20028;-79
2022/10/08 02:05:52;;;;;;;14.13;3.55;;;12.00;99.90;;;;;;5033135;28;20025;-79
2022/10/08 02:08:18;;;;;;;10.35;2.70;;;12.00;99.90;;;;;;5033604;28;20106;-80
2022/10/08 02:10:44;;;;;;;12.88;3.65;;;12.00;99.90;;;;;;5035174;28;20049;-77
2022/10/08 02:13:11;;;;;;;13.57;2.97;;;12.00;99.90;;;;;;5040286;28;20030;-81
2022/10/08 02:15:49;;;;;;;13.00;3.53;;;11.90;99.90;;;;;;5034936;28;20033;-75
2022/10/08 02:18:24;;;;;;;11.10;3.30;;;11.90;99.90;;;;;;5034991;28;20085;-78
2022/10/08 02:20:55;;;;;;;11.63;3.72;;;11.90;99.90;;;;;;5035616;28;20025;-77
2022/10/08 02:23:21;;;;;;;10.77;3.25;;;11.90;99.90;;;;;;5040226;28;20041;-79
2022/10/08 02:25:57;;;;;;;17.55;3.67;;;11.90;99.90;;;;;;5041459;28;20029;-84
2022/10/08 02:28:46;;;;;;;12.50;3.88;;;11.90;99.90;;;;;;5033628;28;20037;-79
2022/10/08 02:31:22;;;;;;;11.75;3.65;;;11.90;99.90;;;;;;5034596;28;20569;-80
2022/10/08 02:33:51;;;;;;;12.32;3.88;;;11.90;99.90;;;;;;5034891;28;20089;-78
2022/10/08 02:36:22;;;;;;;10.55;3.50;;;11.90;99.90;;;;;;5030588;28;20060;-78
2022/10/08 02:38:58;;;;;;;11.07;3.17;;;11.90;99.90;;;;;;5035135;28;20061;-78
2022/10/08 02:41:47;;;;;;;13.68;3.60;;;11.90;99.90;;;;;;5034434;28;20030;-77
2022/10/08 02:44:29;;;;;;;11.85;3.30;;;11.90;99.90;;;;;;5049204;28;20059;-78
2022/10/08 02:46:59;;;;;;;11.63;3.38;;;11.90;99.90;;;;;;5034733;28;20029;-78
2022/10/08 02:49:29;;;;;;;12.60;3.50;;;12.00;99.90;;;;;;5032334;28;20141;-78
2022/10/08 02:52:00;;;;;;;10.05;3.25;;;11.90;99.90;;;;;;5032709;28;20106;-81
2022/10/08 02:54:28;;;;;;;9.70;3.20;;;11.90;99.90;;;;;;5034178;28;20014;-77
2022/10/08 02:57:04;;;;;;;15.98;3.63;;;11.90;99.90;;;;;;5032299;28;20179;-78
2022/10/08 02:59:32;;;;;;;13.00;3.10;;;12.00;99.90;;;;;;5031837;28;20480;-78
2022/10/08 03:02:00;;;;;;;13.25;3.10;;;11.90;99.90;;;;;;5033422;28;20064;-76
2022/10/08 03:04:41;;;;;;;16.08;3.72;;;12.00;99.90;;;;;;5040105;28;20064;-78
2022/10/08 03:07:07;;;;;;;12.00;3.05;;;11.90;99.90;;;;;;5032293;28;20032;-79
2022/10/08 03:09:38;;;;;;;9.63;2.90;;;12.00;99.90;;;;;;5032764;28;20359;-78
2022/10/08 03:12:05;;;;;;;11.45;3.78;;;12.00;99.90;;;;;;5040520;28;20041;-78
2022/10/08 03:14:35;;;;;;;20.90;3.80;;;12.00;99.90;;;;;;5032508;28;20182;-79
2022/10/08 03:17:01;;;;;;;10.30;3.20;;;12.00;99.90;;;;;;5033215;28;20034;-76
2022/10/08 03:19:26;;;;;;;16.27;3.92;;;12.00;99.90;;;;;;5032509;28;20036;-78
2022/10/08 03:21:55;;;;;;;9.45;3.22;;;12.00;99.90;;;;;;5033346;28;20030;-78
2022/10/08 03:24:20;;;;;;;8.15;3.50;;;12.00;99.90;;;;;;5031436;28;20089;-78
2022/10/08 03:26:46;;;;;;;11.98;3.08;;;11.90;99.90;;;;;;5033155;28;20025;-78
2022/10/08 03:29:12;;;;;;;10.65;3.40;;;11.90;99.90;;;;;;5033426;28;20102;-79
2022/10/08 03:31:38;;;;;;;12.20;3.67;;;12.00;99.90;;;;;;5033442;28;20371;-79
2022/10/08 03:34:04;;;;;;;13.30;4.13;;;11.90;99.90;;;;;;5033305;28;20036;-78
2022/10/08 03:36:30;;;;;;;12.30;3.20;;;12.00;99.90;;;;;;5033047;28;20032;-78
2022/10/08 03:38:56;;;;;;;14.02;3.85;;;11.90;99.90;;;;;;5033109;28;20044;-78
2022/10/08 03:41:21;;;;;;;19.73;3.88;;;12.00;99.90;;;;;;5033386;28;20025;-75
2022/10/08 03:43:47;;;;;;;14.63;3.63;;;11.90;99.90;;;;;;5033243;28;20029;-77
2022/10/08 03:46:14;;;;;;;16.00;3.17;;;12.00;99.90;;;;;;5032743;28;20029;-81
2022/10/08 03:48:40;;;;;;;10.60;3.08;;;11.90;99.90;;;;;;5032644;28;20041;-79
2022/10/08 03:51:10;;;;;;;17.48;4.22;;;12.00;99.90;;;;;;5033076;28;20041;-79
2022/10/08 03:53:38;;;;;;;16.55;3.63;;;11.90;99.90;;;;;;5032932;28;21136;-79
2022/10/08 03:56:06;;;;;;;13.65;3.58;;;11.90;99.90;;;;;;5032579;28;20101;-80
2022/10/08 03:58:32;;;;;;;9.27;3.47;;;12.00;99.90;;;;;;5033349;28;20049;-80
2022/10/08 04:01:00;;;;;;;14.25;3.72;;;12.00;99.90;;;;;;5032884;28;20018;-83
2022/10/08 04:03:27;;;;;;;12.60;3.53;;;12.00;99.90;;;;;;5029916;28;20031;-77
2022/10/08 04:05:52;;;;;;;8.13;3.15;;;12.00;99.90;;;;;;5033375;28;20022;-78
2022/10/08 04:08:18;;;;;;;14.20;3.42;;;12.00;99.90;;;;;;5031528;28;20022;-79
2022/10/08 04:10:43;;;;;;;14.65;3.25;;;12.00;99.90;;;;;;5032478;28;20018;-79
2022/10/08 04:13:09;;;;;;;7.88;3.25;;;12.10;99.90;;;;;;5032602;28;20033;-80
2022/10/08 04:15:35;;;;;;;7.10;2.85;;;12.10;99.90;;;;;;5032951;28;20097;-79
2022/10/08 04:18:01;;;;;;;10.40;3.70;;;12.10;99.90;;;;;;5039225;28;20083;-77
2022/10/08 04:20:26;;;;;;;10.18;3.28;;;12.10;99.90;;;;;;5032497;28;20077;-78
2022/10/08 04:22:52;;;;;;;11.55;3.20;;;12.10;99.90;;;;;;5039296;28;20018;-78
2022/10/08 04:25:17;;;;;;;10.60;3.40;;;12.10;99.90;;;;;;5031916;28;20405;-77
2022/10/08 04:27:47;;;;;;;12.35;3.00;;;12.10;99.90;;;;;;5032649;28;20026;-82
2022/10/08 04:30:14;;;;;;;16.90;3.50;;;12.10;99.90;;;;;;5030585;28;20026;-79
2022/10/08 04:32:40;;;;;;;12.07;3.20;;;12.10;99.90;;;;;;5031390;28;20025;-76
2022/10/08 04:35:07;;;;;;;14.73;3.60;;;12.10;99.90;;;;;;5032527;28;20084;-77
2022/10/08 04:37:33;;;;;;;17.27;3.38;;;12.10;99.90;;;;;;5031594;28;20044;-78
2022/10/08 04:39:58;;;;;;;7.60;2.65;;;12.10;99.90;;;;;;5030953;28;20033;-78
2022/10/08 04:42:24;;;;;;;15.05;3.83;;;12.10;99.90;;;;;;5031926;28;20030;-78
2022/10/08 04:44:50;;;;;;;8.75;2.90;;;12.10;99.90;;;;;;5030945;28;20482;-79
2022/10/08 04:47:15;;;;;;;11.50;2.70;;;12.10;99.90;;;;;;5029963;28;20526;-76
2022/10/08 04:49:41;;;;;;;11.93;2.97;;;12.10;99.90;;;;;;5031714;28;20037;-78
2022/10/08 04:52:07;;;;;;;9.05;2.65;;;12.10;99.90;;;;;;5032060;28;20018;-77
2022/10/08 04:54:32;;;;;;;9.68;2.75;;;12.10;99.90;;;;;;5032638;28;20072;-80
2022/10/08 04:56:58;;;;;;;10.70;2.55;;;12.10;99.90;;;;;;5033684;28;20037;-78
2022/10/08 04:59:24;;;;;;;5.45;1.92;;;12.10;99.90;;;;;;5030811;28;20175;-75
2022/10/08 05:01:51;;;;;;;12.40;2.53;;;12.10;99.90;;;;;;5031542;28;20037;-74
2022/10/08 05:04:17;;;;;;;9.73;2.45;;;12.10;99.90;;;;;;5031696;28;20029;-76
2022/10/08 05:06:42;;;;;;;11.23;2.53;;;12.10;99.90;;;;;;5037991;28;20379;-76
2022/10/08 05:09:08;;;;;;;15.85;2.92;;;12.10;99.90;;;;;;5031996;28;20026;-78
2022/10/08 05:11:34;;;;;;;9.68;2.80;;;12.10;99.90;;;;;;5037649;28;20029;-76
2022/10/08 05:14:00;;;;;;;13.52;2.95;;;12.10;99.90;;;;;;5031224;28;20022;-75
2022/10/08 05:16:26;;;;;;;6.90;2.47;;;12.00;99.90;;;;;;5033392;28;20041;-76
2022/10/08 05:18:52;;;;;;;10.45;2.90;;;12.10;99.90;;;;;;5031789;28;20065;-77
2022/10/08 05:21:24;;;;;;;11.48;2.50;;;12.00;99.90;;;;;;5029766;28;20073;-76
2022/10/08 05:24:10;;;;;;;8.07;2.65;;;12.00;99.90;;;;;;5030182;28;20014;-74
2022/10/08 05:26:38;;;;;;;4.55;2.13;;;12.00;99.90;;;;;;5031823;28;20025;-73
2022/10/08 05:29:04;;;;;;;7.57;2.08;;;12.00;99.90;;;;;;5033324;28;20039;-75
2022/10/08 05:31:31;;;;;;;8.57;2.42;;;12.00;99.90;;;;;;5029752;28;20092;-74
2022/10/08 05:33:58;;;;;;;6.85;2.47;;;12.00;99.90;;;;;;5031584;28;20089;-74
2022/10/08 05:36:26;;;;;;;9.48;2.40;;;11.90;99.90;;;;;;5028935;28;20034;-76
2022/10/08 05:38:55;;;;;;;6.25;2.30;;;11.90;99.90;;;;;;5044454;28;20037;-76
2022/10/08 05:41:23;;;;;;;9.07;2.55;;;11.90;99.90;;;;;;5030022;28;20057;-74
2022/10/08 05:43:49;;;;;;;7.97;2.60;;;11.90;99.90;;;;;;5031312;28;20025;-73
2022/10/08 05:46:20;;;;;;;7.25;2.67;;;11.90;99.90;;;;;;5031307;28;20022;-74
2022/10/08 05:48:45;;;;;;;7.53;3.03;;;11.80;99.90;;;;;;5029985;28;20509;-75
2022/10/08 05:51:14;;;;;;;7.90;3.05;;;11.80;99.90;;;;;;5031833;28;20032;-74
2022/10/08 05:53:45;;;;;;;7.75;2.90;;;11.80;99.90;;;;;;5031194;28;20069;-75
2022/10/08 05:56:13;;;;;;;10.20;2.45;;;11.80;99.90;;;;;;5031223;28;20038;-74
2022/10/08 05:58:41;;;;;;;6.65;2.92;;;11.80;99.90;;;;;;5031140;28;20025;-76
2022/10/08 06:01:12;;;;;;;11.75;3.13;;;11.70;99.90;;;;;;5029247;28;20038;-74
2022/10/08 06:03:38;;;;;;;9.77;2.95;;;11.70;99.90;;;;;;5033832;28;20032;-74
2022/10/08 06:06:10;;;;;;;13.02;2.97;;;11.70;99.90;;;;;;5034360;28;20030;-74
2022/10/08 06:08:36;;;;;;;6.22;2.45;;;11.70;99.90;;;;;;5029598;28;20110;-73
2022/10/08 06:11:04;;;;;;;9.88;3.42;;;11.60;99.90;;;;;;5028775;28;20034;-74
2022/10/08 06:13:30;;;;;;;6.82;2.92;;;11.70;99.90;;;;;;5030927;28;20040;-72
2022/10/08 06:15:58;;;;;;;8.95;2.65;;;11.70;99.90;;;;;;5029372;28;20106;-73
2022/10/08 06:18:25;;;;;;;8.18;3.03;;;11.60;99.90;;;;;;5030761;28;20057;-74
2022/10/08 06:20:51;;;;;;;7.82;3.83;;;11.70;99.90;;;;;;5029867;28;20043;-74
2022/10/08 06:23:17;;;;;;;11.45;3.33;;;11.60;99.90;;;;;;5029649;28;20360;-74
2022/10/08 06:25:43;;;;;;;9.75;3.25;;;11.60;99.90;;;;;;5029009;28;20021;-70
2022/10/08 06:28:09;;;;;;;10.48;3.28;;;11.60;99.90;;;;;;5028879;28;20367;-74
2022/10/08 06:30:35;;;;;;;13.18;4.05;;;11.60;99.90;;;;;;5027820;28;20696;-73
2022/10/08 06:33:00;;;;;;;12.52;4.07;;;11.60;99.90;;;;;;5028967;28;20041;-73
2022/10/08 06:35:26;;;;;;;12.75;3.75;;;11.60;99.90;;;;;;5031913;28;20072;-72
2022/10/08 06:37:52;;;;;;;10.80;3.60;;;11.60;99.90;;;;;;5032754;28;20033;-71
2022/10/08 06:40:17;;;;;;;12.40;3.42;;;11.70;99.90;;;;;;5033901;28;20026;-74
2022/10/08 06:42:43;;;;;;;9.10;3.20;;;11.70;99.90;;;;;;5033873;28;20028;-73
2022/10/08 06:45:09;;;;;;;13.05;3.60;;;11.70;99.90;;;;;;5034865;28;20038;-74
2022/10/08 06:47:34;;;;;;;9.80;4.07;;;11.70;99.90;;;;;;5032408;28;20092;-72
2022/10/08 06:50:00;;;;;;;13.15;3.15;;;11.80;99.90;;;;;;5034248;28;21104;-74
2022/10/08 06:52:26;;;;;;;9.25;3.95;;;11.80;99.90;;;;;;5039030;28;20034;-76
2022/10/08 06:54:52;;;;;;;11.18;4.00;;;11.90;99.90;;;;;;5034651;28;20045;-74
2022/10/08 06:57:18;;;;;;;13.60;3.95;;;11.90;99.90;;;;;;5035978;28;20025;-72
2022/10/08 06:59:43;;;;;;;12.60;3.97;;;12.00;99.90;;;;;;5037727;28;20061;-74
2022/10/08 07:02:10;;;;;;;10.77;3.78;;;12.10;99.90;;;;;;5037356;28;20056;-74
2022/10/08 07:04:36;;;;;;;15.27;4.15;;;12.10;99.90;;;;;;5031240;28;20430;-74
2022/10/08 07:07:02;;;;;;;10.82;4.03;;;12.10;99.90;;;;;;5032386;28;20022;-73
2022/10/08 07:09:28;;;;;;;15.77;4.38;;;12.10;99.90;;;;;;5033153;28;20076;-74
2022/10/08 07:11:53;;;;;;;14.77;4.25;;;12.10;99.90;;;;;;5031699;28;20030;-74
2022/10/08 07:14:19;;;;;;;13.35;4.20;;;12.10;99.90;;;;;;5031958;28;20059;-75
2022/10/08 07:16:45;;;;;;;13.40;4.95;;;12.10;99.90;;;;;;5031987;28;20042;-76
2022/10/08 07:19:10;;;;;;;16.20;4.22;;;12.20;99.90;;;;;;5030732;28;20022;-76
2022/10/08 07:21:36;;;;;;;9.00;3.75;;;12.20;99.90;;;;;;5033509;28;20751;-73
2022/10/08 07:24:02;;;;;;;12.15;4.38;;;12.30;99.90;;;;;;5034577;28;20040;-74
2022/10/08 07:26:31;;;;;;;9.25;4.35;;;12.40;99.90;;;;;;5031648;28;20097;-72
2022/10/08 07:29:05;;;;;;;12.65;4.57;;;12.50;99.90;;;;;;5032181;28;20014;-73
2022/10/08 07:31:34;;;;;;;13.18;4.05;;;12.60;99.90;;;;;;5031512;28;20030;-74
2022/10/08 07:34:02;;;;;;;11.32;4.22;;;12.70;99.90;;;;;;5031289;28;20363;-71
2022/10/08 07:36:28;;;;;;;12.02;4.00;;;12.80;99.90;;;;;;5029856;28;20037;-74
2022/10/08 07:38:54;;;;;;;12.55;4.00;;;13.00;99.90;;;;;;5031418;28;20022;-73
2022/10/08 07:41:20;;;;;;;12.68;3.83;;;13.20;99.90;;;;;;5031263;28;20516;-73
2022/10/08 07:43:50;;;;;;;11.50;4.57;;;13.30;99.90;;;;;;5032171;28;20031;-74
2022/10/08 07:46:16;;;;;;;10.75;3.92;;;13.60;99.90;;;;;;5030840;28;20037;-74
2022/10/08 07:48:42;;;;;;;15.80;3.95;;;13.80;99.90;;;;;;5030818;28;20042;-77
2022/10/08 07:51:09;;;;;;;14.95;3.20;;;13.90;99.90;;;;;;5031980;28;20107;-72
2022/10/08 07:53:35;;;;;;;14.77;3.70;;;14.10;99.90;;;;;;5030686;28;20101;-72
2022/10/08 07:56:02;;;;;;;12.35;3.58;;;14.20;99.90;;;;;;5030613;28;20072;-72
2022/10/08 07:58:28;;;;;;;15.18;3.38;;;14.30;99.90;;;;;;5031541;28;20022;-73
2022/10/08 08:00:58;;;;;;;14.18;3.75;;;14.40;99.90;;;;;;5030583;28;20093;-73
2022/10/08 08:03:24;;;;;;;7.50;2.90;;;14.50;99.90;;;;;;5030589;28;20461;-73
2022/10/08 08:05:50;;;;;;;9.77;2.75;;;14.60;99.90;;;;;;5030899;28;20071;-74
2022/10/08 08:08:16;;;;;;;8.23;2.53;;;14.70;99.90;;;;;;5031331;28;20104;-73
2022/10/08 08:10:42;;;;;;;14.70;3.70;;;14.70;99.90;;;;;;5030431;28;20018;-73
2022/10/08 08:13:07;;;;;;;8.82;2.83;;;14.70;99.90;;;;;;5031663;28;20044;-71
2022/10/08 08:15:33;;;;;;;7.05;3.00;;;14.70;99.90;;;;;;5034181;28;20041;-76
2022/10/08 08:17:58;;;;;;;16.35;3.50;;;14.60;99.90;;;;;;5031106;28;20075;-74
2022/10/08 08:20:24;;;;;;;9.13;3.47;;;14.60;99.90;;;;;;5030851;28;20025;-74
2022/10/08 08:22:49;;;;;;;14.05;2.65;;;14.50;99.90;;;;;;5030965;28;20105;-75
2022/10/08 08:25:15;;;;;;;10.70;3.47;;;14.50;99.90;;;;;;5031460;28;20496;-74
2022/10/08 08:27:41;;;;;;;8.38;2.25;;;14.50;99.90;;;;;;5030843;28;20029;-75
2022/10/08 08:30:07;;;;;;;10.15;3.35;;;14.50;99.90;;;;;;5034662;28;20034;-74
2022/10/08 08:32:33;;;;;;;20.52;2.85;;;14.50;99.90;;;;;;5031152;28;20098;-75
2022/10/08 08:34:58;;;;;;;5.90;2.47;;;14.50;99.90;;;;;;5029115;28;20517;-73
2022/10/08 08:37:24;;;;;;;11.02;3.40;;;14.60;99.90;;;;;;5029316;28;20053;-75
2022/10/08 08:39:50;;;;;;;10.30;2.95;;;14.60;99.90;;;;;;5028307;28;20018;-74
2022/10/08 08:42:21;;;;;;;10.13;2.90;;;14.60;99.90;;;;;;5028769;28;21429;-77
2022/10/08 08:44:52;;;;;;;9.85;3.05;;;14.60;99.90;;;;;;5031193;28;20032;-74
2022/10/08 08:47:23;;;;;;;24.40;7.93;;;14.70;99.90;;;;;;5032562;28;20056;-77
2022/10/08 08:50:00;;;;;;;15.30;4.57;;;14.70;99.90;;;;;;5032142;28;20049;-75
2022/10/08 08:52:32;;;;;;;72.97;28.50;;;14.80;99.90;;;;;;5032725;28;20561;-75
2022/10/08 08:54:59;;;;;;;13.95;4.50;;;14.80;99.90;;;;;;5032212;28;20022;-75
2022/10/08 08:57:34;;;;;;;14.95;4.85;;;14.90;99.90;;;;;;5030448;28;20029;-73
2022/10/08 09:00:17;;;;;;;12.38;3.88;;;15.00;99.90;;;;;;5031807;28;20025;-76
2022/10/08 09:03:05;;;;;;;9.80;2.83;;;15.00;99.90;;;;;;5033671;28;20029;-69
2022/10/08 09:05:38;;;;;;;11.77;2.78;;;15.10;99.90;;;;;;5026661;28;20034;-72
2022/10/08 09:08:11;;;;;;;14.30;3.15;;;15.20;99.90;;;;;;5030837;28;20024;-75
2022/10/08 09:10:54;;;;;;;10.65;2.42;;;15.20;99.90;;;;;;5032769;28;20030;-75
2022/10/08 09:13:24;;;;;;;11.10;2.03;;;15.20;99.90;;;;;;5031412;28;20105;-73
2022/10/08 09:15:51;;;;;;;18.73;2.08;;;15.30;99.90;;;;;;5031260;28;20045;-75
2022/10/08 09:18:17;;;;;;;9.90;2.10;;;15.40;99.90;;;;;;5025833;28;20067;-76
2022/10/08 09:20:44;;;;;;;8.93;2.13;;;15.50;99.90;;;;;;5031804;28;20124;-76
2022/10/08 09:23:22;;;;;;;11.43;2.35;;;15.60;99.90;;;;;;5032999;28;20099;-76
2022/10/08 09:26:18;;;;;;;10.40;2.35;;;15.60;99.90;;;;;;5031600;28;20050;-77
2022/10/08 09:28:46;;;;;;;7.57;1.55;;;15.60;99.90;;;;;;5030922;28;20029;-75
2022/10/08 09:31:35;;;;;;;7.95;2.05;;;15.60;99.90;;;;;;5030712;28;20037;-75
2022/10/08 09:34:09;;;;;;;8.90;1.90;;;15.50;99.90;;;;;;5031513;28;20038;-70
2022/10/08 09:36:37;;;;;;;;;;;15.30;99.90;;;;;;5031172;28;20174;-72
2022/10/08 09:39:13;;;;;;;11.50;2.45;;;15.10;99.90;;;;;;5031973;28;19992;-71
2022/10/08 09:41:39;;;;;;;8.55;2.75;;;14.80;99.90;;;;;;5030997;28;20025;-70
2022/10/08 09:44:14;;;;;;;9.93;1.58;;;14.50;99.90;;;;;;5031478;28;20088;-69
2022/10/08 09:46:41;;;;;;;8.43;1.90;;;14.10;99.90;;;;;;5031739;28;20389;-73
2022/10/08 09:49:32;;;;;;;6.50;1.95;;;13.80;99.90;;;;;;5031747;28;20124;-71
2022/10/08 09:52:03;;;;;;;10.82;1.80;;;13.60;99.90;;;;;;5016014;28;20034;-69
2022/10/08 09:54:45;;;;;;;17.58;1.98;;;13.50;99.90;;;;;;5031153;28;20029;-74
2022/10/08 09:57:18;;;;;;;6.53;1.77;;;13.50;99.90;;;;;;5027946;28;20045;-71
2022/10/08 09:59:59;;;;;;;6.15;1.52;;;13.70;99.90;;;;;;5030558;28;20124;-72
2022/10/08 10:02:37;;;;;;;5.13;1.42;;;14.00;99.90;;;;;;5032031;28;20470;-73
2022/10/08 10:05:20;;;;;;;4.25;0.90;;;14.20;99.90;;;;;;5031302;28;20560;-76
2022/10/08 10:07:45;;;;;;;2.78;0.63;;;14.00;99.90;;;;;;5031959;28;20033;-74
2022/10/08 10:10:33;;;;;;;3.90;0.80;;;13.70;99.90;;;;;;5032357;28;20021;-74
2022/10/08 10:13:21;;;;;;;2.28;0.95;;;13.50;99.90;;;;;;5035137;28;20060;-71
2022/10/08 10:15:55;;;;;;;4.05;0.85;;;13.40;99.90;;;;;;5034149;28;20041;-72
2022/10/08 10:18:27;;;;;;;3.20;0.93;;;13.30;99.90;;;;;;5033369;28;20053;-71
2022/10/08 10:20:58;;;;;;;2.72;0.70;;;13.00;99.90;;;;;;5034279;28;20045;-73
2022/10/08 10:23:34;;;;;;;2.58;0.93;;;12.90;99.90;;;;;;5037220;28;20036;-72
2022/10/08 10:26:08;;;;;;;2.70;0.77;;;12.80;99.90;;;;;;5034372;28;20051;-73
2022/10/08 10:28:54;;;;;;;1.95;0.80;;;12.80;99.90;;;;;;5039206;28;20044;-72
2022/10/08 10:31:27;;;;;;;8.25;1.02;;;12.90;99.90;;;;;;5035188;28;20022;-73
2022/10/08 10:34:05;;;;;;;5.78;0.90;;;13.10;99.90;;;;;;5036399;28;20048;-71
2022/10/08 10:36:40;;;;;;;6.93;1.17;;;13.30;99.90;;;;;;5034465;28;20500;-72
2022/10/08 10:39:32;;;;;;;4.20;0.95;;;13.50;99.90;;;;;;5034622;28;20018;-74
2022/10/08 10:42:25;;;;;;;2.97;0.90;;;13.80;99.90;;;;;;5034315;28;20505;-74
2022/10/08 10:44:57;;;;;;;2.65;1.00;;;14.00;99.90;;;;;;5032417;28;20087;-73
2022/10/08 10:47:27;;;;;;;3.60;0.63;;;14.20;99.90;;;;;;5034480;28;20026;-75
2022/10/08 10:49:53;;;;;;;3.92;1.48;;;14.40;99.90;;;;;;5032939;28;20045;-75
2022/10/08 10:52:33;;;;;;;2.83;1.00;;;14.70;99.90;;;;;;5033447;28;20034;-75
2022/10/08 10:55:10;;;;;;;3.90;1.30;;;15.00;99.90;;;;;;5048632;28;20065;-72
2022/10/08 10:58:03;;;;;;;4.82;1.38;;;15.20;99.90;;;;;;5031751;28;20032;-75
2022/10/08 11:00:47;;;;;;;5.95;1.50;;;15.50;99.90;;;;;;5034268;28;20101;-73
2022/10/08 11:03:29;;;;;;;5.50;1.10;;;15.70;99.90;;;;;;5035153;28;20025;-74
2022/10/08 11:06:20;;;;;;;4.55;1.10;;;15.70;99.90;;;;;;5033580;28;20033;-74
2022/10/08 11:09:11;;;;;;;2.90;0.80;;;15.60;99.90;;;;;;5048749;28;20033;-75
2022/10/08 11:11:36;;;;;;;1.50;0.50;;;15.50;99.90;;;;;;5033531;28;20037;-74
2022/10/08 11:14:34;;;;;;;6.22;0.95;;;15.60;99.90;;;;;;5033596;28;20026;-77
2022/10/08 11:17:10;;;;;;;2.83;0.95;;;15.70;99.90;;;;;;5031019;28;20076;-78
2022/10/08 11:19:44;;;;;;;4.40;1.50;;;16.00;99.90;;;;;;5033805;28;20018;-76
2022/10/08 11:22:16;;;;;;;;;;;16.20;99.90;;;;;;5029356;28;20052;-76
2022/10/08 11:25:06;;;;;;;10.18;1.77;;;16.40;99.90;;;;;;5030444;28;19928;-75
2022/10/08 11:27:57;;;;;;;4.47;0.93;;;16.50;99.90;;;;;;5031137;28;20025;-73
2022/10/08 11:30:44;;;;;;;3.85;0.90;;;16.50;99.90;;;;;;5033744;28;20052;-75
2022/10/08 11:33:14;;;;;;;3.50;0.80;;;16.60;99.90;;;;;;5031676;28;20029;-80
2022/10/08 11:36:18;;;;;;;5.30;1.00;;;16.80;99.90;;;;;;5032203;28;20075;-80
2022/10/08 11:39:03;;;;;;;5.97;1.50;;;17.00;99.90;;;;;;5037919;28;20021;-78
2022/10/08 11:41:52;;;;;;;4.65;1.20;;;17.20;99.90;;;;;;5032722;28;20048;-78
2022/10/08 11:44:20;;;;;;;2.67;0.80;;;17.30;99.90;;;;;;5030557;28;20087;-77
2022/10/08 11:46:49;;;;;;;10.07;1.73;;;17.30;99.90;;;;;;5027805;28;20030;-81
2022/10/08 11:49:14;;;;;;;5.25;1.00;;;17.40;99.90;;;;;;5030288;28;20056;-76
2022/10/08 11:51:51;;;;;;;7.05;1.50;;;17.40;99.90;;;;;;5031010;28;20034;-74
2022/10/08 11:59:43;;;;;;;7.45;1.20;;;18.00;99.90;;;;;;5028911;28;20417;-80
2022/10/08 12:02:36;;;;;;;3.97;1.05;;;18.30;99.90;;;;;;5051850;28;20033;-76
2022/10/08 12:05:20;;;;;;;7.20;1.10;;;18.60;99.90;;;;;;5035109;28;21151;-76
2022/10/08 12:07:53;;;;;;;1.83;0.90;;;18.70;99.90;;;;;;5053242;28;20056;-74
2022/10/08 12:10:19;;;;;;;8.75;1.17;;;18.40;99.90;;;;;;5053328;28;20032;-73
2022/10/08 12:12:51;;;;;;;4.20;0.85;;;18.10;99.90;;;;;;5051976;28;20025;-72
2022/10/08 12:15:23;;;;;;;6.43;0.90;;;17.70;99.90;;;;;;5051078;28;20035;-76
2022/10/08 12:18:00;;;;;;;4.45;0.70;;;17.20;99.90;;;;;;5052538;28;20033;-79
2022/10/08 12:20:31;;;;;;;3.40;0.80;;;16.50;99.90;;;;;;5051861;28;20032;-76
2022/10/08 12:23:00;;;;;;;3.65;0.80;;;15.90;99.90;;;;;;5050102;28;20013;-74
2022/10/08 12:25:31;;;;;;;3.15;0.60;;;15.40;99.90;;;;;;5051324;28;20045;-74
2022/10/08 12:28:19;;;;;;;5.03;0.88;;;15.00;99.90;;;;;;5051802;28;20037;-75
2022/10/08 12:30:51;;;;;;;6.68;0.60;;;14.50;99.90;;;;;;5052512;28;20030;-73
2022/10/08 12:33:18;;;;;;;3.10;0.75;;;14.10;99.90;;;;;;5051603;28;20040;-74
2022/10/08 12:36:27;;;;;;;2.65;0.88;;;13.80;99.90;;;;;;5052880;28;20040;-73
2022/10/08 12:39:03;;;;;;;5.55;1.02;;;13.60;99.90;;;;;;4979755;28;20144;-72
2022/10/08 12:41:56;;;;;;;3.08;0.82;;;13.60;99.90;;;;;;5044870;28;20041;-70
2022/10/08 12:44:30;;;;;;;2.13;0.95;;;13.80;99.90;;;;;;5052083;28;20028;-72
2022/10/08 12:47:15;;;;;;;6.63;0.98;;;14.40;99.90;;;;;;5049827;28;20087;-73
2022/10/08 12:49:50;;;;;;;5.53;1.33;;;15.10;99.90;;;;;;5050719;28;20033;-74
2022/10/08 12:52:18;;;;;;;2.67;1.15;;;15.80;99.90;;;;;;5051887;28;20025;-74
2022/10/08 12:54:52;;;;;;;7.20;1.08;;;16.40;99.90;;;;;;5052227;28;20033;-73
2022/10/08 12:57:22;;;;;;;3.13;1.10;;;16.80;99.90;;;;;;5052741;28;20144;-74
2022/10/08 12:59:49;;;;;;;6.90;1.05;;;17.30;99.90;;;;;;5052645;28;20021;-74
2022/10/08 13:02:37;;;;;;;8.32;1.23;;;17.60;99.90;;;;;;5051207;28;20032;-75
2022/10/08 13:05:24;;;;;;;7.13;1.10;;;17.80;99.90;;;;;;5051183;28;20041;-74
2022/10/08 13:07:49;;;;;;;5.55;1.20;;;18.00;99.90;;;;;;5051705;28;20445;-75
2022/10/08 13:10:25;;;;;;;6.38;1.10;;;18.10;99.90;;;;;;5051117;28;20049;-76